createdAt,value
2022-08-29T00:00:18.482Z,21.87
2022-08-29T00:02:48.502Z,21.83
2022-08-29T00:05:18.841Z,21.81
2022-08-29T00:07:47.175Z,21.75
2022-08-29T00:10:15.546Z,21.70
2022-08-29T00:12:44.382Z,21.61
2022-08-29T00:15:14.104Z,21.57
2022-08-29T00:17:42.873Z,21.51
2022-08-29T00:20:14.714Z,21.46
2022-08-29T00:22:44.457Z,21.43
2022-08-29T00:25:14.299Z,21.49
2022-08-29T00:27:42.482Z,21.41
2022-08-29T00:30:17.970Z,21.36
2022-08-29T00:32:46.038Z,21.29
2022-08-29T00:35:16.563Z,21.31
2022-08-29T00:37:46.438Z,21.26
2022-08-29T00:40:18.000Z,20.95
2022-08-29T00:42:46.345Z,20.80
2022-08-29T00:45:15.734Z,20.76
2022-08-29T00:47:48.945Z,20.79
2022-08-29T00:50:24.625Z,20.85
2022-08-29T00:52:57.263Z,20.94
2022-08-29T00:55:29.063Z,20.91
2022-08-29T00:58:00.357Z,20.68
2022-08-29T01:00:29.025Z,20.65
2022-08-29T01:02:57.478Z,20.73
2022-08-29T01:05:27.005Z,20.67
2022-08-29T01:07:56.402Z,20.75
2022-08-29T01:10:42.509Z,20.75
2022-08-29T01:13:12.915Z,20.80
2022-08-29T01:15:42.854Z,20.93
2022-08-29T01:18:11.500Z,21.06
2022-08-29T01:20:47.602Z,20.95
2022-08-29T01:23:24.850Z,20.87
2022-08-29T01:25:55.410Z,20.98
2022-08-29T01:28:26.330Z,21.03
2022-08-29T01:31:03.484Z,21.17
2022-08-29T01:33:43.665Z,21.18
2022-08-29T01:36:15.389Z,21.19
2022-08-29T01:38:43.847Z,21.21
2022-08-29T01:41:14.057Z,21.18
2022-08-29T01:43:48.813Z,21.06
2022-08-29T01:46:20.570Z,21.08
2022-08-29T01:48:49.011Z,21.06
2022-08-29T01:51:18.453Z,20.99
2022-08-29T01:53:47.046Z,21.01
2022-08-29T01:56:19.734Z,21.03
2022-08-29T01:58:49.643Z,21.03
2022-08-29T02:01:20.311Z,20.97
2022-08-29T02:03:50.081Z,20.97
2022-08-29T02:06:18.542Z,20.96
2022-08-29T02:08:48.564Z,20.93
2022-08-29T02:11:18.483Z,20.96
2022-08-29T02:13:49.264Z,21.00
2022-08-29T02:16:17.754Z,20.95
2022-08-29T02:18:46.458Z,20.95
2022-08-29T02:21:17.243Z,20.91
2022-08-29T02:23:46.511Z,20.85
2022-08-29T02:26:14.646Z,20.83
2022-08-29T02:28:44.289Z,20.89
2022-08-29T02:31:12.520Z,20.82
2022-08-29T02:33:41.146Z,20.86
2022-08-29T02:36:09.549Z,20.76
2022-08-29T02:38:39.342Z,20.72
2022-08-29T02:41:12.388Z,20.64
2022-08-29T02:43:44.802Z,20.60
2022-08-29T02:46:17.602Z,20.46
2022-08-29T02:48:49.240Z,20.43
2022-08-29T02:51:31.327Z,20.37
2022-08-29T02:53:59.967Z,20.32
2022-08-29T02:56:29.297Z,20.26
2022-08-29T02:58:58.782Z,20.18
2022-08-29T03:01:27.467Z,20.16
2022-08-29T03:03:55.817Z,20.08
2022-08-29T03:06:24.839Z,20.02
2022-08-29T03:08:54.183Z,19.97
2022-08-29T03:11:23.443Z,19.94
2022-08-29T03:13:51.490Z,19.90
2022-08-29T03:16:27.457Z,19.81
2022-08-29T03:18:55.934Z,19.77
2022-08-29T03:21:27.694Z,19.74
2022-08-29T03:23:56.954Z,19.63
2022-08-29T03:26:25.889Z,19.70
2022-08-29T03:28:54.288Z,19.67
2022-08-29T03:31:22.692Z,19.63
2022-08-29T03:33:52.188Z,19.64
2022-08-29T03:36:20.271Z,19.63
2022-08-29T03:38:49.312Z,19.60
2022-08-29T03:41:21.799Z,19.61
2022-08-29T03:43:49.813Z,19.58
2022-08-29T03:46:17.964Z,19.60
2022-08-29T03:48:46.194Z,19.57
2022-08-29T03:51:16.528Z,19.55
2022-08-29T03:53:45.133Z,19.53
2022-08-29T03:56:18.943Z,19.54
2022-08-29T03:58:52.508Z,19.52
2022-08-29T04:01:22.702Z,19.57
2022-08-29T04:03:51.324Z,19.63
2022-08-29T04:06:22.520Z,19.69
2022-08-29T04:08:51.720Z,19.78
2022-08-29T04:11:20.834Z,19.80
2022-08-29T04:13:49.342Z,19.83
2022-08-29T04:16:20.343Z,19.91
2022-08-29T04:18:48.559Z,19.97
2022-08-29T04:21:17.087Z,19.99
2022-08-29T04:23:48.064Z,19.98
2022-08-29T04:29:06.786Z,20.04
2022-08-29T04:31:36.640Z,20.12
2022-08-29T04:34:05.379Z,20.14
2022-08-29T04:36:35.094Z,20.24
2022-08-29T04:39:06.729Z,20.32
2022-08-29T04:41:35.336Z,20.49
2022-08-29T04:44:03.524Z,20.56
2022-08-29T04:46:32.229Z,20.65
2022-08-29T04:49:03.959Z,20.80
2022-08-29T04:51:34.557Z,20.91
2022-08-29T04:54:03.114Z,21.00
2022-08-29T04:56:32.609Z,21.10
2022-08-29T04:59:02.871Z,21.22
2022-08-29T05:01:31.679Z,21.39
2022-08-29T05:03:59.882Z,21.71
2022-08-29T05:06:28.361Z,21.89
2022-08-29T05:08:59.613Z,22.03
2022-08-29T05:11:30.180Z,22.14
2022-08-29T05:14:00.876Z,22.28
2022-08-29T05:16:30.477Z,22.47
2022-08-29T05:18:59.989Z,22.67
2022-08-29T05:21:34.157Z,22.90
2022-08-29T05:24:04.654Z,23.10
2022-08-29T05:26:34.143Z,23.30
2022-08-29T05:29:04.226Z,23.50
2022-08-29T05:31:37.684Z,23.80
2022-08-29T05:34:16.217Z,24.13
2022-08-29T05:36:54.566Z,24.33
2022-08-29T05:39:22.574Z,24.54
2022-08-29T05:41:50.544Z,24.89
2022-08-29T05:44:19.951Z,25.06
2022-08-29T05:46:48.840Z,25.08
2022-08-29T05:49:17.080Z,25.31
2022-08-29T05:51:45.322Z,25.42
2022-08-29T05:54:13.287Z,25.61
2022-08-29T05:56:43.268Z,25.71
2022-08-29T05:59:13.726Z,25.84
2022-08-29T06:01:43.614Z,26.05
2022-08-29T06:04:11.749Z,26.35
2022-08-29T06:06:42.381Z,26.49
2022-08-29T06:09:10.746Z,26.43
2022-08-29T06:11:38.752Z,26.48
2022-08-29T06:14:07.052Z,26.83
2022-08-29T06:16:35.750Z,26.76
2022-08-29T06:19:05.114Z,26.95
2022-08-29T06:21:33.206Z,27.25
2022-08-29T06:24:01.656Z,27.27
2022-08-29T06:26:31.569Z,27.34
2022-08-29T06:28:59.790Z,27.66
2022-08-29T06:31:29.599Z,27.82
2022-08-29T06:33:59.872Z,27.81
2022-08-29T06:36:30.949Z,28.05
2022-08-29T06:39:00.789Z,28.23
2022-08-29T06:41:29.299Z,28.27
2022-08-29T06:43:58.833Z,28.51
2022-08-29T06:46:30.598Z,28.37
2022-08-29T06:49:02.402Z,28.50
2022-08-29T06:51:33.395Z,28.46
2022-08-29T06:54:01.660Z,28.72
2022-08-29T06:56:32.430Z,28.86
2022-08-29T06:59:00.889Z,28.66
2022-08-29T07:01:29.049Z,28.62
2022-08-29T07:03:58.949Z,28.68
2022-08-29T07:06:27.879Z,28.68
2022-08-29T07:08:58.058Z,28.65
2022-08-29T07:11:27.377Z,28.66
2022-08-29T07:13:58.415Z,28.82
2022-08-29T07:16:27.312Z,28.83
2022-08-29T07:18:56.369Z,28.97
2022-08-29T07:21:26.802Z,29.07
2022-08-29T07:23:58.994Z,28.60
2022-08-29T07:26:29.850Z,28.74
2022-08-29T07:29:00.091Z,29.05
2022-08-29T07:31:31.820Z,29.32
2022-08-29T07:34:02.830Z,29.23
2022-08-29T07:36:34.443Z,29.27
2022-08-29T07:39:07.174Z,29.61
2022-08-29T07:41:35.217Z,29.72
2022-08-29T07:44:03.368Z,29.91
2022-08-29T07:46:31.756Z,30.08
2022-08-29T07:49:00.264Z,29.84
2022-08-29T07:51:28.959Z,30.10
2022-08-29T07:53:57.744Z,30.46
2022-08-29T07:56:29.198Z,30.54
2022-08-29T07:58:58.987Z,30.62
2022-08-29T08:01:27.792Z,30.66
2022-08-29T08:03:55.933Z,30.69
2022-08-29T08:06:27.353Z,30.93
2022-08-29T08:08:56.601Z,31.18
2022-08-29T08:11:27.511Z,31.54
2022-08-29T08:13:57.629Z,31.60
2022-08-29T08:16:28.310Z,31.70
2022-08-29T08:18:56.709Z,31.97
2022-08-29T08:21:26.381Z,32.10
2022-08-29T08:23:54.929Z,32.54
2022-08-29T08:26:23.906Z,32.48
2022-08-29T08:28:55.176Z,32.37
2022-08-29T08:31:23.963Z,32.66
2022-08-29T08:33:52.669Z,33.02
2022-08-29T08:36:23.993Z,32.97
2022-08-29T08:38:53.674Z,32.85
2022-08-29T08:41:32.379Z,32.53
2022-08-29T08:44:06.852Z,32.96
2022-08-29T08:46:39.357Z,32.99
2022-08-29T08:49:12.713Z,33.12
2022-08-29T08:51:48.170Z,33.21
2022-08-29T08:54:22.954Z,33.55
2022-08-29T08:57:00.003Z,33.63
2022-08-29T08:59:39.503Z,33.87
2022-08-29T09:02:15.765Z,33.87
2022-08-29T09:04:54.689Z,33.73
2022-08-29T09:07:47.857Z,33.91
2022-08-29T09:10:22.415Z,33.73
2022-08-29T09:13:01.586Z,34.08
2022-08-29T09:15:39.977Z,34.07
2022-08-29T09:18:13.854Z,34.00
2022-08-29T09:20:43.566Z,33.96
2022-08-29T09:23:20.811Z,34.04
2022-08-29T09:25:49.662Z,34.13
2022-08-29T09:28:18.069Z,33.88
2022-08-29T09:31:28.315Z,33.85
2022-08-29T09:33:59.235Z,33.77
2022-08-29T09:36:41.066Z,33.60
2022-08-29T09:39:15.612Z,33.79
2022-08-29T09:41:44.437Z,34.09
2022-08-29T09:44:16.165Z,34.16
2022-08-29T09:46:46.582Z,33.76
2022-08-29T09:49:18.997Z,34.25
2022-08-29T09:51:49.440Z,34.17
2022-08-29T09:54:26.089Z,34.62
2022-08-29T09:57:00.501Z,34.70
2022-08-29T09:59:30.734Z,34.85
2022-08-29T10:02:33.906Z,34.66
2022-08-29T10:05:03.232Z,35.04
2022-08-29T10:07:36.402Z,35.22
2022-08-29T10:10:08.722Z,35.29
2022-08-29T10:12:51.549Z,35.25
2022-08-29T10:15:46.555Z,35.15
2022-08-29T10:18:27.350Z,35.35
2022-08-29T10:21:13.621Z,35.46
2022-08-29T10:23:53.262Z,35.05
2022-08-29T10:26:36.162Z,35.27
2022-08-29T10:29:09.445Z,35.38
2022-08-29T10:31:45.201Z,35.47
2022-08-29T10:34:39.641Z,35.55
2022-08-29T10:37:17.183Z,35.44
2022-08-29T10:39:54.004Z,35.38
2022-08-29T10:42:26.537Z,35.69
2022-08-29T10:45:07.554Z,35.65
2022-08-29T10:47:41.962Z,35.80
2022-08-29T10:50:43.188Z,35.63
2022-08-29T10:53:18.026Z,35.45
2022-08-29T10:55:53.806Z,35.52
2022-08-29T10:58:32.708Z,35.34
2022-08-29T11:01:09.305Z,35.43
2022-08-29T11:03:43.218Z,35.18
2022-08-29T11:06:22.454Z,35.22
2022-08-29T11:08:59.667Z,35.27
2022-08-29T11:11:30.368Z,35.20
2022-08-29T11:14:05.955Z,35.44
2022-08-29T11:16:42.827Z,35.38
2022-08-29T11:19:22.747Z,35.32
2022-08-29T11:21:57.438Z,35.30
2022-08-29T11:24:34.518Z,35.23
2022-08-29T11:27:11.923Z,35.28
2022-08-29T11:29:47.634Z,35.54
2022-08-29T11:32:26.497Z,35.47
2022-08-29T11:35:07.460Z,35.54
2022-08-29T11:38:02.706Z,35.61
2022-08-29T11:41:26.287Z,35.42
2022-08-29T11:43:42.490Z,35.32
2022-08-29T11:46:14.085Z,35.23
2022-08-29T11:48:44.546Z,35.19
2022-08-29T11:51:34.739Z,35.20
2022-08-29T11:54:37.249Z,35.02
2022-08-29T11:57:46.821Z,35.03
2022-08-29T12:00:44.116Z,34.70
2022-08-29T12:03:57.446Z,34.62
2022-08-29T12:06:38.217Z,34.71
2022-08-29T12:09:45.027Z,34.86
2022-08-29T12:12:20.495Z,34.87
2022-08-29T12:14:53.255Z,34.87
2022-08-29T12:18:01.546Z,34.85
2022-08-29T12:20:41.595Z,34.79
2022-08-29T12:23:21.112Z,34.91
2022-08-29T12:26:21.060Z,34.82
2022-08-29T12:28:58.950Z,34.86
2022-08-29T12:32:18.180Z,34.79
2022-08-29T12:34:54.177Z,34.51
2022-08-29T12:37:43.587Z,34.78
2022-08-29T12:40:49.166Z,35.12
2022-08-29T12:43:34.022Z,34.96
2022-08-29T12:46:04.925Z,35.08
2022-08-29T12:48:40.430Z,35.16
2022-08-29T12:51:09.865Z,35.25
2022-08-29T12:53:40.278Z,35.29
2022-08-29T12:56:18.600Z,35.20
2022-08-29T12:58:55.113Z,34.72
2022-08-29T13:01:33.514Z,34.98
2022-08-29T13:04:14.914Z,34.85
2022-08-29T13:06:54.789Z,35.06
2022-08-29T13:09:28.207Z,34.92
2022-08-29T13:12:14.870Z,34.88
2022-08-29T13:14:57.774Z,34.90
2022-08-29T13:17:27.364Z,34.78
2022-08-29T13:20:32.904Z,34.54
2022-08-29T13:23:12.212Z,34.33
2022-08-29T13:25:47.603Z,33.95
2022-08-29T13:28:18.647Z,33.84
2022-08-29T13:30:49.009Z,33.54
2022-08-29T13:33:35.162Z,33.70
2022-08-29T13:36:31.551Z,33.64
2022-08-29T13:39:41.180Z,33.73
2022-08-29T13:42:34.417Z,33.78
2022-08-29T13:45:15.050Z,33.90
2022-08-29T13:47:52.047Z,33.78
2022-08-29T13:50:20.642Z,33.71
2022-08-29T13:52:52.902Z,33.33
2022-08-29T13:55:23.286Z,33.04
2022-08-29T13:57:54.465Z,33.23
2022-08-29T14:00:31.977Z,33.14
2022-08-29T14:03:03.324Z,32.76
2022-08-29T14:05:32.070Z,32.43
2022-08-29T14:08:00.334Z,32.49
2022-08-29T14:10:30.047Z,32.78
2022-08-29T14:12:58.261Z,32.78
2022-08-29T14:15:26.750Z,32.81
2022-08-29T14:17:55.247Z,32.41
2022-08-29T14:20:23.883Z,32.13
2022-08-29T14:22:52.702Z,31.83
2022-08-29T14:25:21.817Z,31.60
2022-08-29T14:27:51.770Z,31.78
2022-08-29T14:30:23.064Z,31.61
2022-08-29T14:32:51.344Z,31.35
2022-08-29T14:35:26.722Z,31.35
2022-08-29T14:37:59.616Z,31.54
2022-08-29T14:40:28.831Z,31.77
2022-08-29T14:42:59.365Z,31.68
2022-08-29T14:45:27.744Z,31.74
2022-08-29T14:47:57.205Z,31.54
2022-08-29T14:50:25.579Z,31.42
2022-08-29T14:52:54.273Z,31.16
2022-08-29T14:55:23.766Z,31.33
2022-08-29T14:57:52.258Z,31.24
2022-08-29T15:00:26.226Z,31.00
2022-08-29T15:02:55.171Z,31.02
2022-08-29T15:05:23.669Z,31.02
2022-08-29T15:08:00.724Z,30.95
2022-08-29T15:10:32.562Z,30.88
2022-08-29T15:13:00.988Z,30.85
2022-08-29T15:15:31.151Z,30.83
2022-08-29T15:18:01.423Z,30.81
2022-08-29T15:20:37.603Z,30.62
2022-08-29T15:23:07.055Z,30.50
2022-08-29T15:25:35.486Z,30.48
2022-08-29T15:28:05.849Z,30.29
2022-08-29T15:30:36.023Z,30.21
2022-08-29T15:33:04.334Z,30.35
2022-08-29T15:35:33.274Z,30.56
2022-08-29T15:38:01.560Z,30.63
2022-08-29T15:40:30.018Z,30.71
2022-08-29T15:42:58.237Z,30.66
2022-08-29T15:45:26.518Z,30.68
2022-08-29T15:47:56.228Z,30.66
2022-08-29T15:50:26.158Z,30.61
2022-08-29T15:52:54.590Z,30.49
2022-08-29T15:55:24.725Z,30.15
2022-08-29T15:57:53.228Z,29.89
2022-08-29T16:00:30.411Z,29.61
2022-08-29T16:03:03.536Z,29.48
2022-08-29T16:05:33.306Z,29.37
2022-08-29T16:08:02.306Z,29.44
2022-08-29T16:10:31.639Z,29.54
2022-08-29T16:13:00.207Z,29.44
2022-08-29T16:15:31.157Z,29.33
2022-08-29T16:18:02.642Z,29.16
2022-08-29T16:20:32.273Z,29.02
2022-08-29T16:23:01.175Z,28.90
2022-08-29T16:25:32.399Z,28.52
2022-08-29T16:28:01.266Z,28.41
2022-08-29T16:30:31.639Z,28.52
2022-08-29T16:33:01.832Z,28.48
2022-08-29T16:35:30.310Z,28.11
2022-08-29T16:38:02.212Z,27.95
2022-08-29T16:40:32.944Z,27.80
2022-08-29T16:43:02.660Z,27.87
2022-08-29T16:45:31.286Z,27.88
2022-08-29T16:48:01.158Z,27.89
2022-08-29T16:50:30.098Z,27.67
2022-08-29T16:52:58.613Z,27.40
2022-08-29T16:55:28.866Z,27.34
2022-08-29T16:58:15.258Z,27.42
2022-08-29T17:00:44.601Z,27.13
2022-08-29T17:03:19.460Z,27.05
2022-08-29T17:05:49.605Z,27.04
2022-08-29T17:08:17.000Z,27.05
2022-08-29T17:10:44.398Z,27.00
2022-08-29T17:13:11.962Z,27.01
2022-08-29T17:15:39.264Z,26.88
2022-08-29T17:18:08.489Z,26.70
2022-08-29T17:20:38.350Z,26.26
2022-08-29T17:23:10.116Z,26.20
2022-08-29T17:25:39.321Z,26.26
2022-08-29T17:28:17.588Z,26.32
2022-08-29T17:30:47.019Z,26.25
2022-08-29T17:33:15.320Z,25.88
2022-08-29T17:35:45.418Z,25.95
2022-08-29T17:38:15.385Z,25.86
2022-08-29T17:40:44.391Z,26.04
2022-08-29T17:43:13.160Z,26.00
2022-08-29T17:45:41.850Z,26.00
2022-08-29T17:48:09.985Z,25.93
2022-08-29T17:50:38.567Z,25.82
2022-08-29T17:53:08.263Z,25.82
2022-08-29T17:55:36.513Z,25.75
2022-08-29T17:58:04.703Z,25.70
2022-08-29T18:00:32.882Z,25.73
2022-08-29T18:03:02.289Z,25.68
2022-08-29T18:05:30.552Z,25.62
2022-08-29T18:07:58.664Z,25.59
2022-08-29T18:10:29.026Z,25.54
2022-08-29T18:12:57.150Z,25.44
2022-08-29T18:15:25.482Z,25.37
2022-08-29T18:17:53.864Z,25.27
2022-08-29T18:20:23.357Z,25.19
2022-08-29T18:22:51.509Z,25.19
2022-08-29T18:25:22.449Z,25.24
2022-08-29T18:27:52.535Z,25.22
2022-08-29T18:30:21.612Z,25.09
2022-08-29T18:32:50.113Z,24.98
2022-08-29T18:35:18.922Z,24.91
2022-08-29T18:37:47.021Z,24.83
2022-08-29T18:40:15.283Z,24.80
2022-08-29T18:42:43.454Z,24.70
2022-08-29T18:45:14.322Z,24.59
2022-08-29T18:47:42.494Z,24.56
2022-08-29T18:50:28.658Z,24.58
2022-08-29T18:52:56.833Z,24.62
2022-08-29T18:55:25.924Z,24.60
2022-08-29T18:57:54.855Z,24.58
2022-08-29T19:00:25.548Z,24.52
2022-08-29T19:02:53.886Z,24.41
2022-08-29T19:05:22.963Z,24.30
2022-08-29T19:07:51.364Z,24.24
2022-08-29T19:10:20.195Z,24.29
2022-08-29T19:12:49.069Z,24.28
2022-08-29T19:15:18.409Z,24.22
2022-08-29T19:17:48.450Z,24.14
2022-08-29T19:20:36.436Z,24.16
2022-08-29T19:23:04.891Z,24.02
2022-08-29T19:25:33.022Z,24.13
2022-08-29T19:28:01.290Z,24.16
2022-08-29T19:30:30.215Z,23.96
2022-08-29T19:32:59.763Z,24.03
2022-08-29T19:35:28.258Z,24.04
2022-08-29T19:37:56.786Z,24.02
2022-08-29T19:40:25.797Z,23.95
2022-08-29T19:42:55.980Z,23.66
2022-08-29T19:45:25.326Z,23.30
2022-08-29T19:47:54.164Z,23.47
2022-08-29T19:50:24.924Z,23.59
2022-08-29T19:52:54.538Z,23.53
2022-08-29T19:55:24.142Z,23.57
2022-08-29T19:57:52.845Z,23.73
2022-08-29T20:00:24.529Z,23.79
2022-08-29T20:02:53.764Z,23.72
2022-08-29T20:05:23.923Z,23.57
2022-08-29T20:07:52.187Z,23.57
2022-08-29T20:10:22.963Z,23.60
2022-08-29T20:12:51.728Z,23.63
2022-08-29T20:15:22.063Z,23.74
2022-08-29T20:17:59.776Z,23.71
2022-08-29T20:20:32.053Z,23.77
2022-08-29T20:23:00.246Z,23.93
2022-08-29T20:25:29.167Z,23.86
2022-08-29T20:27:57.283Z,23.88
2022-08-29T20:30:28.753Z,23.97
2022-08-29T20:32:57.009Z,23.84
2022-08-29T20:35:42.629Z,23.84
2022-08-29T20:38:12.516Z,23.67
2022-08-29T20:40:46.647Z,23.44
2022-08-29T20:43:15.105Z,23.71
2022-08-29T20:45:43.224Z,23.68
2022-08-29T20:48:11.516Z,23.84
2022-08-29T20:50:41.141Z,23.85
2022-08-29T20:53:14.748Z,23.77
2022-08-29T20:56:00.221Z,23.68
2022-08-29T20:58:30.292Z,23.70
2022-08-29T21:00:59.607Z,23.68
2022-08-29T21:03:45.992Z,23.29
2022-08-29T21:06:14.228Z,23.29
2022-08-29T21:08:43.636Z,23.43
2022-08-29T21:11:14.430Z,23.45
2022-08-29T21:13:43.441Z,23.43
2022-08-29T21:16:12.585Z,23.36
2022-08-29T21:18:41.176Z,23.41
2022-08-29T21:21:12.245Z,23.27
2022-08-29T21:23:41.042Z,23.16
2022-08-29T21:26:12.871Z,23.14
2022-08-29T21:28:43.329Z,23.16
2022-08-29T21:31:15.590Z,23.13
2022-08-29T21:33:45.987Z,23.02
2022-08-29T21:36:14.825Z,22.93
2022-08-29T21:38:42.924Z,22.84
2022-08-29T21:41:13.453Z,22.30
2022-08-29T21:43:42.538Z,22.08
2022-08-29T21:46:18.455Z,22.19
2022-08-29T21:48:47.283Z,22.34
2022-08-29T21:51:18.970Z,22.34
2022-08-29T21:53:47.658Z,22.42
2022-08-29T21:56:17.573Z,22.34
2022-08-29T21:58:48.135Z,22.40
2022-08-29T22:01:16.311Z,22.50
2022-08-29T22:03:47.833Z,22.56
2022-08-29T22:08:59.981Z,22.54
2022-08-29T22:11:37.633Z,22.51
2022-08-29T22:14:07.483Z,22.51
2022-08-29T22:16:35.679Z,22.55
2022-08-29T22:19:08.062Z,22.49
2022-08-29T22:21:39.612Z,22.47
2022-08-29T22:24:08.678Z,22.42
2022-08-29T22:26:39.649Z,22.38
2022-08-29T22:29:11.718Z,22.20
2022-08-29T22:31:42.359Z,22.01
2022-08-29T22:34:11.032Z,22.00
2022-08-29T22:36:39.070Z,22.10
2022-08-29T22:39:07.234Z,22.03
2022-08-29T22:41:35.901Z,21.85
2022-08-29T22:44:52.692Z,21.84
2022-08-29T22:46:54.831Z,21.86
2022-08-29T22:49:27.680Z,21.86
2022-08-29T22:52:01.761Z,22.10
2022-08-29T22:54:38.705Z,22.13
2022-08-29T22:57:09.130Z,22.14
2022-08-29T22:59:39.496Z,22.09
2022-08-29T23:02:08.368Z,21.99
2022-08-29T23:04:37.309Z,21.96
2022-08-29T23:07:05.838Z,21.96
2022-08-29T23:09:35.562Z,21.86
2022-08-29T23:12:04.812Z,21.81
2022-08-29T23:14:35.872Z,21.81
2022-08-29T23:17:06.756Z,21.70
2022-08-29T23:19:35.173Z,21.61
2022-08-29T23:22:04.458Z,21.60
2022-08-29T23:24:34.124Z,21.57
2022-08-29T23:27:02.594Z,21.38
2022-08-29T23:29:32.746Z,21.41
2022-08-29T23:32:00.927Z,21.44
2022-08-29T23:34:31.803Z,21.50
2022-08-29T23:37:00.012Z,21.37
2022-08-29T23:39:28.288Z,21.19
2022-08-29T23:41:56.620Z,21.26
2022-08-29T23:44:24.833Z,21.35
2022-08-29T23:46:52.789Z,21.27
2022-08-29T23:49:20.902Z,21.18
2022-08-29T23:51:50.918Z,21.21
2022-08-29T23:54:19.432Z,21.40
2022-08-29T23:56:47.451Z,21.45
2022-08-29T23:59:35.422Z,21.47
